sensor_id;sensor_type;location;lat;lon;timestamp;P1;durP1;ratioP1;P2;durP2;ratioP2
57635;SDS011;43465;50.728;4.160;2023-09-08T00:01:52;9.80;;;7.03;;
57635;SDS011;43465;50.728;4.160;2023-09-08T00:04:18;9.00;;;8.20;;
57635;SDS011;43465;50.728;4.160;2023-09-08T00:06:45;9.20;;;7.43;;
57635;SDS011;43465;50.728;4.160;2023-09-08T00:09:11;8.73;;;7.82;;
57635;SDS011;43465;50.728;4.160;2023-09-08T00:11:37;8.25;;;7.45;;
57635;SDS011;43465;50.728;4.160;2023-09-08T00:14:03;10.05;;;7.47;;
57635;SDS011;43465;50.728;4.160;2023-09-08T00:16:29;9.25;;;6.68;;
57635;SDS011;43465;50.728;4.160;2023-09-08T00:18:55;7.10;;;6.47;;
57635;SDS011;43465;50.728;4.160;2023-09-08T00:21:25;8.55;;;6.53;;
57635;SDS011;43465;50.728;4.160;2023-09-08T00:23:51;9.15;;;6.85;;
57635;SDS011;43465;50.728;4.160;2023-09-08T00:26:17;8.60;;;7.32;;
57635;SDS011;43465;50.728;4.160;2023-09-08T00:28:43;8.73;;;6.70;;
57635;SDS011;43465;50.728;4.160;2023-09-08T00:31:08;9.48;;;7.15;;
57635;SDS011;43465;50.728;4.160;2023-09-08T00:33:34;11.43;;;7.38;;
57635;SDS011;43465;50.728;4.160;2023-09-08T00:35:59;8.30;;;6.78;;
57635;SDS011;43465;50.728;4.160;2023-09-08T00:38:25;10.30;;;7.65;;
57635;SDS011;43465;50.728;4.160;2023-09-08T00:40:51;9.93;;;7.03;;
57635;SDS011;43465;50.728;4.160;2023-09-08T00:43:17;8.68;;;7.00;;
57635;SDS011;43465;50.728;4.160;2023-09-08T00:45:43;7.97;;;7.13;;
57635;SDS011;43465;50.728;4.160;2023-09-08T00:48:09;10.55;;;7.60;;
57635;SDS011;43465;50.728;4.160;2023-09-08T00:50:36;11.05;;;7.95;;
57635;SDS011;43465;50.728;4.160;2023-09-08T00:53:02;9.15;;;7.15;;
57635;SDS011;43465;50.728;4.160;2023-09-08T00:55:29;9.25;;;7.82;;
57635;SDS011;43465;50.728;4.160;2023-09-08T00:57:56;10.82;;;8.07;;
57635;SDS011;43465;50.728;4.160;2023-09-08T01:00:23;9.15;;;7.72;;
57635;SDS011;43465;50.728;4.160;2023-09-08T01:02:49;9.05;;;7.32;;
57635;SDS011;43465;50.728;4.160;2023-09-08T01:05:15;8.52;;;7.03;;
57635;SDS011;43465;50.728;4.160;2023-09-08T01:07:41;12.05;;;7.80;;
57635;SDS011;43465;50.728;4.160;2023-09-08T01:10:09;11.05;;;8.25;;
57635;SDS011;43465;50.728;4.160;2023-09-08T01:12:35;11.32;;;7.82;;
57635;SDS011;43465;50.728;4.160;2023-09-08T01:15:04;10.98;;;7.70;;
57635;SDS011;43465;50.728;4.160;2023-09-08T01:17:30;10.68;;;8.35;;
57635;SDS011;43465;50.728;4.160;2023-09-08T01:19:56;9.57;;;7.22;;
57635;SDS011;43465;50.728;4.160;2023-09-08T01:25:20;10.90;;;8.30;;
57635;SDS011;43465;50.728;4.160;2023-09-08T01:27:48;9.40;;;7.90;;
57635;SDS011;43465;50.728;4.160;2023-09-08T01:30:15;13.45;;;8.88;;
57635;SDS011;43465;50.728;4.160;2023-09-08T01:32:43;10.38;;;8.45;;
57635;SDS011;43465;50.728;4.160;2023-09-08T01:35:09;10.90;;;8.38;;
57635;SDS011;43465;50.728;4.160;2023-09-08T01:37:35;11.57;;;8.65;;
57635;SDS011;43465;50.728;4.160;2023-09-08T01:40:04;12.48;;;8.77;;
57635;SDS011;43465;50.728;4.160;2023-09-08T01:42:30;14.20;;;8.35;;
57635;SDS011;43465;50.728;4.160;2023-09-08T01:44:55;10.15;;;7.32;;
57635;SDS011;43465;50.728;4.160;2023-09-08T01:47:21;12.52;;;8.18;;
57635;SDS011;43465;50.728;4.160;2023-09-08T01:49:47;11.20;;;8.70;;
57635;SDS011;43465;50.728;4.160;2023-09-08T01:52:12;11.05;;;8.40;;
57635;SDS011;43465;50.728;4.160;2023-09-08T01:54:38;9.90;;;8.05;;
57635;SDS011;43465;50.728;4.160;2023-09-08T01:57:03;12.25;;;7.65;;
57635;SDS011;43465;50.728;4.160;2023-09-08T01:59:29;11.35;;;7.95;;
57635;SDS011;43465;50.728;4.160;2023-09-08T02:01:55;10.20;;;8.10;;
57635;SDS011;43465;50.728;4.160;2023-09-08T02:04:20;12.18;;;8.25;;
57635;SDS011;43465;50.728;4.160;2023-09-08T02:06:46;10.70;;;8.68;;
57635;SDS011;43465;50.728;4.160;2023-09-08T02:09:13;11.20;;;8.60;;
57635;SDS011;43465;50.728;4.160;2023-09-08T02:11:39;13.57;;;8.82;;
57635;SDS011;43465;50.728;4.160;2023-09-08T02:14:07;11.45;;;9.30;;
57635;SDS011;43465;50.728;4.160;2023-09-08T02:16:34;9.55;;;8.55;;
57635;SDS011;43465;50.728;4.160;2023-09-08T02:18:59;11.70;;;9.27;;
57635;SDS011;43465;50.728;4.160;2023-09-08T02:21:25;14.88;;;9.23;;
57635;SDS011;43465;50.728;4.160;2023-09-08T02:23:50;14.02;;;9.73;;
57635;SDS011;43465;50.728;4.160;2023-09-08T02:26:16;12.65;;;9.45;;
57635;SDS011;43465;50.728;4.160;2023-09-08T02:28:41;13.68;;;9.68;;
57635;SDS011;43465;50.728;4.160;2023-09-08T02:31:07;10.90;;;8.60;;
57635;SDS011;43465;50.728;4.160;2023-09-08T02:33:33;12.20;;;9.38;;
57635;SDS011;43465;50.728;4.160;2023-09-08T02:36:03;9.00;;;8.02;;
57635;SDS011;43465;50.728;4.160;2023-09-08T02:38:32;12.43;;;9.25;;
57635;SDS011;43465;50.728;4.160;2023-09-08T02:40:58;10.77;;;9.40;;
57635;SDS011;43465;50.728;4.160;2023-09-08T02:43:23;11.70;;;9.70;;
57635;SDS011;43465;50.728;4.160;2023-09-08T02:45:49;11.60;;;9.60;;
57635;SDS011;43465;50.728;4.160;2023-09-08T02:48:15;13.55;;;9.80;;
57635;SDS011;43465;50.728;4.160;2023-09-08T02:50:41;11.30;;;9.30;;
57635;SDS011;43465;50.728;4.160;2023-09-08T02:53:08;11.13;;;10.02;;
57635;SDS011;43465;50.728;4.160;2023-09-08T02:55:34;10.35;;;8.88;;
57635;SDS011;43465;50.728;4.160;2023-09-08T02:57:59;10.68;;;9.60;;
57635;SDS011;43465;50.728;4.160;2023-09-08T03:00:25;12.85;;;10.05;;
57635;SDS011;43465;50.728;4.160;2023-09-08T03:02:50;11.13;;;9.05;;
57635;SDS011;43465;50.728;4.160;2023-09-08T03:05:16;10.05;;;9.15;;
57635;SDS011;43465;50.728;4.160;2023-09-08T03:07:42;10.43;;;9.30;;
57635;SDS011;43465;50.728;4.160;2023-09-08T03:10:07;10.02;;;9.02;;
57635;SDS011;43465;50.728;4.160;2023-09-08T03:12:34;9.75;;;8.50;;
57635;SDS011;43465;50.728;4.160;2023-09-08T03:15:00;10.65;;;9.63;;
57635;SDS011;43465;50.728;4.160;2023-09-08T03:17:26;10.70;;;9.68;;
57635;SDS011;43465;50.728;4.160;2023-09-08T03:19:52;11.60;;;10.40;;
57635;SDS011;43465;50.728;4.160;2023-09-08T03:22:18;11.60;;;10.10;;
57635;SDS011;43465;50.728;4.160;2023-09-08T03:24:43;11.13;;;9.68;;
57635;SDS011;43465;50.728;4.160;2023-09-08T03:27:15;10.88;;;9.63;;
57635;SDS011;43465;50.728;4.160;2023-09-08T03:29:40;13.60;;;9.77;;
57635;SDS011;43465;50.728;4.160;2023-09-08T03:32:06;10.52;;;9.15;;
57635;SDS011;43465;50.728;4.160;2023-09-08T03:34:32;12.57;;;9.60;;
57635;SDS011;43465;50.728;4.160;2023-09-08T03:36:59;14.45;;;10.40;;
57635;SDS011;43465;50.728;4.160;2023-09-08T03:39:24;11.45;;;9.75;;
57635;SDS011;43465;50.728;4.160;2023-09-08T03:41:50;10.20;;;9.18;;
57635;SDS011;43465;50.728;4.160;2023-09-08T03:44:15;10.52;;;9.40;;
57635;SDS011;43465;50.728;4.160;2023-09-08T03:46:41;12.00;;;9.73;;
57635;SDS011;43465;50.728;4.160;2023-09-08T03:49:07;11.80;;;9.80;;
57635;SDS011;43465;50.728;4.160;2023-09-08T03:51:33;12.07;;;9.90;;
57635;SDS011;43465;50.728;4.160;2023-09-08T03:53:58;11.50;;;9.95;;
57635;SDS011;43465;50.728;4.160;2023-09-08T03:56:25;12.35;;;9.23;;
57635;SDS011;43465;50.728;4.160;2023-09-08T03:58:51;12.23;;;10.05;;
57635;SDS011;43465;50.728;4.160;2023-09-08T04:01:16;12.18;;;9.80;;
57635;SDS011;43465;50.728;4.160;2023-09-08T04:03:42;16.13;;;10.00;;
57635;SDS011;43465;50.728;4.160;2023-09-08T04:06:08;11.40;;;10.00;;
57635;SDS011;43465;50.728;4.160;2023-09-08T04:08:34;10.63;;;9.52;;
57635;SDS011;43465;50.728;4.160;2023-09-08T04:11:00;11.73;;;10.40;;
57635;SDS011;43465;50.728;4.160;2023-09-08T04:13:25;11.82;;;9.63;;
57635;SDS011;43465;50.728;4.160;2023-09-08T04:15:51;10.93;;;9.82;;
57635;SDS011;43465;50.728;4.160;2023-09-08T04:18:16;9.95;;;9.00;;
57635;SDS011;43465;50.728;4.160;2023-09-08T04:20:42;12.93;;;10.43;;
57635;SDS011;43465;50.728;4.160;2023-09-08T04:23:08;14.77;;;11.02;;
57635;SDS011;43465;50.728;4.160;2023-09-08T04:25:34;14.50;;;11.93;;
57635;SDS011;43465;50.728;4.160;2023-09-08T04:28:01;11.75;;;10.35;;
57635;SDS011;43465;50.728;4.160;2023-09-08T04:30:27;13.52;;;11.40;;
57635;SDS011;43465;50.728;4.160;2023-09-08T04:32:53;13.85;;;12.27;;
57635;SDS011;43465;50.728;4.160;2023-09-08T04:35:18;15.43;;;12.23;;
57635;SDS011;43465;50.728;4.160;2023-09-08T04:37:44;13.35;;;11.98;;
57635;SDS011;43465;50.728;4.160;2023-09-08T04:40:09;12.20;;;11.00;;
57635;SDS011;43465;50.728;4.160;2023-09-08T04:42:35;12.60;;;11.38;;
57635;SDS011;43465;50.728;4.160;2023-09-08T04:45:01;13.85;;;11.95;;
57635;SDS011;43465;50.728;4.160;2023-09-08T04:47:26;13.90;;;12.40;;
57635;SDS011;43465;50.728;4.160;2023-09-08T04:49:52;20.05;;;13.90;;
57635;SDS011;43465;50.728;4.160;2023-09-08T04:52:18;15.30;;;13.80;;
57635;SDS011;43465;50.728;4.160;2023-09-08T04:54:43;13.77;;;12.48;;
57635;SDS011;43465;50.728;4.160;2023-09-08T04:57:09;14.07;;;12.57;;
57635;SDS011;43465;50.728;4.160;2023-09-08T04:59:35;15.98;;;12.75;;
57635;SDS011;43465;50.728;4.160;2023-09-08T05:02:02;15.25;;;12.90;;
57635;SDS011;43465;50.728;4.160;2023-09-08T05:04:28;16.83;;;14.57;;
57635;SDS011;43465;50.728;4.160;2023-09-08T05:06:53;14.52;;;13.02;;
57635;SDS011;43465;50.728;4.160;2023-09-08T05:09:19;14.75;;;13.35;;
57635;SDS011;43465;50.728;4.160;2023-09-08T05:11:44;14.60;;;12.80;;
57635;SDS011;43465;50.728;4.160;2023-09-08T05:14:10;16.83;;;13.20;;
57635;SDS011;43465;50.728;4.160;2023-09-08T05:16:36;16.65;;;13.40;;
57635;SDS011;43465;50.728;4.160;2023-09-08T05:19:03;17.65;;;14.32;;
57635;SDS011;43465;50.728;4.160;2023-09-08T05:21:30;19.38;;;14.10;;
57635;SDS011;43465;50.728;4.160;2023-09-08T05:23:56;18.52;;;14.55;;
57635;SDS011;43465;50.728;4.160;2023-09-08T05:26:22;16.85;;;14.60;;
57635;SDS011;43465;50.728;4.160;2023-09-08T05:28:47;16.98;;;13.38;;
57635;SDS011;43465;50.728;4.160;2023-09-08T05:31:13;14.75;;;13.25;;
57635;SDS011;43465;50.728;4.160;2023-09-08T05:33:38;16.98;;;13.60;;
57635;SDS011;43465;50.728;4.160;2023-09-08T05:36:04;15.65;;;13.82;;
57635;SDS011;43465;50.728;4.160;2023-09-08T05:38:30;16.55;;;12.93;;
57635;SDS011;43465;50.728;4.160;2023-09-08T05:40:55;18.80;;;13.35;;
57635;SDS011;43465;50.728;4.160;2023-09-08T05:43:22;53.83;;;15.05;;
57635;SDS011;43465;50.728;4.160;2023-09-08T05:45:49;42.25;;;13.90;;
57635;SDS011;43465;50.728;4.160;2023-09-08T05:48:15;28.30;;;14.05;;
57635;SDS011;43465;50.728;4.160;2023-09-08T05:50:41;21.63;;;12.88;;
57635;SDS011;43465;50.728;4.160;2023-09-08T05:53:07;21.05;;;12.38;;
57635;SDS011;43465;50.728;4.160;2023-09-08T05:55:33;26.40;;;14.00;;
57635;SDS011;43465;50.728;4.160;2023-09-08T05:57:58;14.55;;;13.15;;
57635;SDS011;43465;50.728;4.160;2023-09-08T06:00:24;15.65;;;13.27;;
57635;SDS011;43465;50.728;4.160;2023-09-08T06:02:50;19.15;;;13.52;;
57635;SDS011;43465;50.728;4.160;2023-09-08T06:05:16;17.58;;;13.65;;
57635;SDS011;43465;50.728;4.160;2023-09-08T06:07:41;13.93;;;12.50;;
57635;SDS011;43465;50.728;4.160;2023-09-08T06:10:07;21.98;;;12.65;;
57635;SDS011;43465;50.728;4.160;2023-09-08T06:12:33;17.48;;;12.68;;
57635;SDS011;43465;50.728;4.160;2023-09-08T06:14:59;26.13;;;13.65;;
57635;SDS011;43465;50.728;4.160;2023-09-08T06:17:24;22.85;;;13.52;;
57635;SDS011;43465;50.728;4.160;2023-09-08T06:19:50;21.92;;;13.70;;
57635;SDS011;43465;50.728;4.160;2023-09-08T06:22:16;23.80;;;13.65;;
57635;SDS011;43465;50.728;4.160;2023-09-08T06:24:41;22.45;;;13.05;;
57635;SDS011;43465;50.728;4.160;2023-09-08T06:27:07;44.05;;;14.52;;
57635;SDS011;43465;50.728;4.160;2023-09-08T06:29:33;47.85;;;14.32;;
57635;SDS011;43465;50.728;4.160;2023-09-08T06:31:58;26.02;;;13.60;;
57635;SDS011;43465;50.728;4.160;2023-09-08T06:34:24;22.50;;;13.73;;
57635;SDS011;43465;50.728;4.160;2023-09-08T06:36:49;19.73;;;13.13;;
57635;SDS011;43465;50.728;4.160;2023-09-08T06:39:15;19.55;;;12.48;;
57635;SDS011;43465;50.728;4.160;2023-09-08T06:41:41;14.82;;;12.43;;
57635;SDS011;43465;50.728;4.160;2023-09-08T06:44:06;14.27;;;12.77;;
57635;SDS011;43465;50.728;4.160;2023-09-08T06:46:32;16.38;;;12.43;;
57635;SDS011;43465;50.728;4.160;2023-09-08T06:48:58;13.55;;;12.18;;
57635;SDS011;43465;50.728;4.160;2023-09-08T06:51:23;19.27;;;13.00;;
57635;SDS011;43465;50.728;4.160;2023-09-08T06:53:56;13.63;;;12.23;;
57635;SDS011;43465;50.728;4.160;2023-09-08T06:56:22;19.45;;;12.65;;
57635;SDS011;43465;50.728;4.160;2023-09-08T06:58:48;16.45;;;12.63;;
57635;SDS011;43465;50.728;4.160;2023-09-08T07:01:14;15.32;;;11.63;;
57635;SDS011;43465;50.728;4.160;2023-09-08T07:03:39;14.23;;;12.40;;
57635;SDS011;43465;50.728;4.160;2023-09-08T07:06:05;13.32;;;12.00;;
57635;SDS011;43465;50.728;4.160;2023-09-08T07:08:30;14.43;;;12.18;;
57635;SDS011;43465;50.728;4.160;2023-09-08T07:10:56;17.95;;;11.98;;
57635;SDS011;43465;50.728;4.160;2023-09-08T07:13:22;13.35;;;11.70;;
57635;SDS011;43465;50.728;4.160;2023-09-08T07:15:47;12.65;;;11.38;;
57635;SDS011;43465;50.728;4.160;2023-09-08T07:18:13;15.48;;;11.70;;
57635;SDS011;43465;50.728;4.160;2023-09-08T07:20:38;18.17;;;12.23;;
57635;SDS011;43465;50.728;4.160;2023-09-08T07:23:05;14.95;;;11.63;;
57635;SDS011;43465;50.728;4.160;2023-09-08T07:25:31;12.52;;;11.20;;
57635;SDS011;43465;50.728;4.160;2023-09-08T07:27:56;14.43;;;11.02;;
57635;SDS011;43465;50.728;4.160;2023-09-08T07:30:22;15.80;;;11.80;;
57635;SDS011;43465;50.728;4.160;2023-09-08T07:32:48;14.13;;;12.48;;
57635;SDS011;43465;50.728;4.160;2023-09-08T07:35:13;13.90;;;12.57;;
57635;SDS011;43465;50.728;4.160;2023-09-08T07:37:41;15.98;;;12.90;;
57635;SDS011;43465;50.728;4.160;2023-09-08T07:40:09;16.13;;;12.32;;
57635;SDS011;43465;50.728;4.160;2023-09-08T07:42:35;19.33;;;12.65;;
57635;SDS011;43465;50.728;4.160;2023-09-08T07:45:01;19.50;;;11.98;;
57635;SDS011;43465;50.728;4.160;2023-09-08T07:47:26;15.77;;;12.32;;
57635;SDS011;43465;50.728;4.160;2023-09-08T07:49:52;17.63;;;12.07;;
57635;SDS011;43465;50.728;4.160;2023-09-08T07:52:41;22.02;;;13.65;;
57635;SDS011;43465;50.728;4.160;2023-09-08T07:55:07;15.65;;;12.23;;
57635;SDS011;43465;50.728;4.160;2023-09-08T07:57:32;20.88;;;13.30;;
57635;SDS011;43465;50.728;4.160;2023-09-08T07:59:58;17.70;;;12.68;;
57635;SDS011;43465;50.728;4.160;2023-09-08T08:02:23;16.70;;;12.23;;
57635;SDS011;43465;50.728;4.160;2023-09-08T08:04:49;13.70;;;12.10;;
57635;SDS011;43465;50.728;4.160;2023-09-08T08:07:15;13.07;;;11.52;;
57635;SDS011;43465;50.728;4.160;2023-09-08T08:09:40;15.52;;;11.88;;
57635;SDS011;43465;50.728;4.160;2023-09-08T08:12:06;15.38;;;11.63;;
57635;SDS011;43465;50.728;4.160;2023-09-08T08:14:31;12.25;;;11.00;;
57635;SDS011;43465;50.728;4.160;2023-09-08T08:16:57;16.95;;;11.25;;
57635;SDS011;43465;50.728;4.160;2023-09-08T08:19:23;15.60;;;10.88;;
57635;SDS011;43465;50.728;4.160;2023-09-08T08:21:48;15.77;;;10.95;;
57635;SDS011;43465;50.728;4.160;2023-09-08T08:24:14;14.30;;;10.57;;
57635;SDS011;43465;50.728;4.160;2023-09-08T08:26:40;18.83;;;10.63;;
57635;SDS011;43465;50.728;4.160;2023-09-08T08:29:05;15.38;;;10.20;;
57635;SDS011;43465;50.728;4.160;2023-09-08T08:31:31;12.20;;;10.57;;
57635;SDS011;43465;50.728;4.160;2023-09-08T08:33:58;14.63;;;10.27;;
57635;SDS011;43465;50.728;4.160;2023-09-08T08:36:23;14.63;;;10.57;;
57635;SDS011;43465;50.728;4.160;2023-09-08T08:38:49;16.35;;;10.43;;
57635;SDS011;43465;50.728;4.160;2023-09-08T08:41:14;15.52;;;10.43;;
57635;SDS011;43465;50.728;4.160;2023-09-08T08:43:41;15.77;;;10.02;;
57635;SDS011;43465;50.728;4.160;2023-09-08T08:46:08;12.43;;;10.57;;
57635;SDS011;43465;50.728;4.160;2023-09-08T08:48:34;12.13;;;10.93;;
57635;SDS011;43465;50.728;4.160;2023-09-08T08:51:02;19.10;;;11.40;;
57635;SDS011;43465;50.728;4.160;2023-09-08T08:53:28;11.93;;;10.73;;
57635;SDS011;43465;50.728;4.160;2023-09-08T08:55:56;15.70;;;10.45;;
57635;SDS011;43465;50.728;4.160;2023-09-08T08:58:24;14.90;;;10.45;;
57635;SDS011;43465;50.728;4.160;2023-09-08T09:00:52;14.57;;;9.68;;
57635;SDS011;43465;50.728;4.160;2023-09-08T09:03:20;13.63;;;9.93;;
57635;SDS011;43465;50.728;4.160;2023-09-08T09:05:48;13.40;;;10.40;;
57635;SDS011;43465;50.728;4.160;2023-09-08T09:08:15;18.33;;;11.18;;
57635;SDS011;43465;50.728;4.160;2023-09-08T09:10:42;13.27;;;10.82;;
57635;SDS011;43465;50.728;4.160;2023-09-08T09:13:11;15.43;;;10.23;;
57635;SDS011;43465;50.728;4.160;2023-09-08T09:15:36;11.88;;;9.73;;
57635;SDS011;43465;50.728;4.160;2023-09-08T09:18:02;10.93;;;9.48;;
57635;SDS011;43465;50.728;4.160;2023-09-08T09:20:32;15.20;;;10.35;;
57635;SDS011;43465;50.728;4.160;2023-09-08T09:22:58;16.60;;;9.15;;
57635;SDS011;43465;50.728;4.160;2023-09-08T09:25:28;14.55;;;10.00;;
57635;SDS011;43465;50.728;4.160;2023-09-08T09:27:55;12.50;;;9.43;;
57635;SDS011;43465;50.728;4.160;2023-09-08T09:30:23;14.48;;;10.20;;
57635;SDS011;43465;50.728;4.160;2023-09-08T09:33:02;10.40;;;9.40;;
57635;SDS011;43465;50.728;4.160;2023-09-08T09:35:42;13.65;;;9.27;;
57635;SDS011;43465;50.728;4.160;2023-09-08T09:38:09;11.68;;;9.50;;
57635;SDS011;43465;50.728;4.160;2023-09-08T09:40:34;14.20;;;9.80;;
57635;SDS011;43465;50.728;4.160;2023-09-08T09:43:00;13.80;;;9.40;;
57635;SDS011;43465;50.728;4.160;2023-09-08T09:45:31;13.85;;;10.18;;
57635;SDS011;43465;50.728;4.160;2023-09-08T09:48:05;12.65;;;9.15;;
57635;SDS011;43465;50.728;4.160;2023-09-08T09:50:32;11.40;;;9.48;;
57635;SDS011;43465;50.728;4.160;2023-09-08T09:52:59;13.52;;;8.70;;
57635;SDS011;43465;50.728;4.160;2023-09-08T09:55:33;10.57;;;8.93;;
57635;SDS011;43465;50.728;4.160;2023-09-08T09:58:01;14.65;;;9.93;;
57635;SDS011;43465;50.728;4.160;2023-09-08T10:00:29;18.98;;;9.00;;
57635;SDS011;43465;50.728;4.160;2023-09-08T10:02:55;15.07;;;9.23;;
57635;SDS011;43465;50.728;4.160;2023-09-08T10:05:23;11.18;;;8.52;;
57635;SDS011;43465;50.728;4.160;2023-09-08T10:07:50;13.27;;;7.85;;
57635;SDS011;43465;50.728;4.160;2023-09-08T10:10:17;12.10;;;7.85;;
57635;SDS011;43465;50.728;4.160;2023-09-08T10:12:44;9.65;;;7.72;;
57635;SDS011;43465;50.728;4.160;2023-09-08T10:15:11;11.07;;;7.13;;
57635;SDS011;43465;50.728;4.160;2023-09-08T10:17:38;9.98;;;7.05;;
57635;SDS011;43465;50.728;4.160;2023-09-08T10:20:06;10.57;;;7.75;;
57635;SDS011;43465;50.728;4.160;2023-09-08T10:22:37;11.95;;;7.85;;
57635;SDS011;43465;50.728;4.160;2023-09-08T10:25:06;8.98;;;6.70;;
57635;SDS011;43465;50.728;4.160;2023-09-08T10:27:33;8.93;;;6.63;;
57635;SDS011;43465;50.728;4.160;2023-09-08T10:30:01;10.02;;;7.07;;
57635;SDS011;43465;50.728;4.160;2023-09-08T10:32:29;8.35;;;6.97;;
57635;SDS011;43465;50.728;4.160;2023-09-08T10:34:58;11.85;;;6.60;;
57635;SDS011;43465;50.728;4.160;2023-09-08T10:37:25;12.13;;;7.25;;
57635;SDS011;43465;50.728;4.160;2023-09-08T10:39:54;7.40;;;6.10;;
57635;SDS011;43465;50.728;4.160;2023-09-08T10:42:21;13.68;;;6.57;;
57635;SDS011;43465;50.728;4.160;2023-09-08T10:44:57;13.93;;;6.55;;
57635;SDS011;43465;50.728;4.160;2023-09-08T10:50:19;10.57;;;5.97;;
57635;SDS011;43465;50.728;4.160;2023-09-08T10:55:43;13.18;;;6.65;;
57635;SDS011;43465;50.728;4.160;2023-09-08T10:58:17;9.35;;;6.28;;
57635;SDS011;43465;50.728;4.160;2023-09-08T11:00:48;9.48;;;6.50;;
57635;SDS011;43465;50.728;4.160;2023-09-08T11:06:17;8.50;;;6.22;;
57635;SDS011;43465;50.728;4.160;2023-09-08T11:08:44;10.40;;;6.40;;
57635;SDS011;43465;50.728;4.160;2023-09-08T11:11:11;8.23;;;6.32;;
57635;SDS011;43465;50.728;4.160;2023-09-08T11:13:38;13.82;;;6.72;;
57635;SDS011;43465;50.728;4.160;2023-09-08T11:16:05;7.97;;;5.97;;
57635;SDS011;43465;50.728;4.160;2023-09-08T11:18:31;6.72;;;5.65;;
57635;SDS011;43465;50.728;4.160;2023-09-08T11:21:01;10.75;;;6.28;;
57635;SDS011;43465;50.728;4.160;2023-09-08T11:23:28;8.82;;;5.72;;
57635;SDS011;43465;50.728;4.160;2023-09-08T11:25:54;11.82;;;6.30;;
57635;SDS011;43465;50.728;4.160;2023-09-08T11:28:23;10.32;;;5.80;;
57635;SDS011;43465;50.728;4.160;2023-09-08T11:30:50;11.60;;;6.25;;
57635;SDS011;43465;50.728;4.160;2023-09-08T11:33:16;9.43;;;5.55;;
57635;SDS011;43465;50.728;4.160;2023-09-08T11:35:44;9.88;;;5.60;;
57635;SDS011;43465;50.728;4.160;2023-09-08T11:38:11;8.35;;;5.60;;
57635;SDS011;43465;50.728;4.160;2023-09-08T11:40:37;8.60;;;5.32;;
57635;SDS011;43465;50.728;4.160;2023-09-08T11:43:04;12.70;;;5.50;;
57635;SDS011;43465;50.728;4.160;2023-09-08T11:45:31;9.07;;;5.57;;
57635;SDS011;43465;50.728;4.160;2023-09-08T11:48:00;8.90;;;5.50;;
57635;SDS011;43465;50.728;4.160;2023-09-08T11:50:25;11.27;;;5.47;;
57635;SDS011;43465;50.728;4.160;2023-09-08T11:52:51;8.05;;;5.38;;
57635;SDS011;43465;50.728;4.160;2023-09-08T11:55:18;13.00;;;5.45;;
57635;SDS011;43465;50.728;4.160;2023-09-08T11:57:51;9.25;;;5.75;;
57635;SDS011;43465;50.728;4.160;2023-09-08T12:00:22;8.27;;;5.47;;
57635;SDS011;43465;50.728;4.160;2023-09-08T12:02:49;12.38;;;5.78;;
57635;SDS011;43465;50.728;4.160;2023-09-08T12:05:22;6.00;;;5.15;;
57635;SDS011;43465;50.728;4.160;2023-09-08T12:07:52;11.88;;;5.10;;
57635;SDS011;43465;50.728;4.160;2023-09-08T12:10:19;5.22;;;4.68;;
57635;SDS011;43465;50.728;4.160;2023-09-08T12:12:51;7.15;;;4.93;;
57635;SDS011;43465;50.728;4.160;2023-09-08T12:15:33;6.07;;;4.70;;
57635;SDS011;43465;50.728;4.160;2023-09-08T12:18:00;10.60;;;4.90;;
57635;SDS011;43465;50.728;4.160;2023-09-08T12:20:27;12.45;;;5.43;;
57635;SDS011;43465;50.728;4.160;2023-09-08T12:22:53;5.50;;;5.00;;
57635;SDS011;43465;50.728;4.160;2023-09-08T12:25:19;9.75;;;5.07;;
57635;SDS011;43465;50.728;4.160;2023-09-08T12:27:45;9.00;;;4.78;;
57635;SDS011;43465;50.728;4.160;2023-09-08T12:30:18;5.65;;;4.53;;
57635;SDS011;43465;50.728;4.160;2023-09-08T12:32:46;8.82;;;5.10;;
57635;SDS011;43465;50.728;4.160;2023-09-08T12:35:18;10.65;;;5.38;;
57635;SDS011;43465;50.728;4.160;2023-09-08T12:37:46;13.30;;;4.78;;
57635;SDS011;43465;50.728;4.160;2023-09-08T12:40:12;12.15;;;4.82;;
57635;SDS011;43465;50.728;4.160;2023-09-08T12:42:38;10.05;;;5.22;;
57635;SDS011;43465;50.728;4.160;2023-09-08T12:45:04;8.07;;;4.72;;
57635;SDS011;43465;50.728;4.160;2023-09-08T12:47:30;11.63;;;4.30;;
57635;SDS011;43465;50.728;4.160;2023-09-08T12:49:56;14.90;;;4.50;;
57635;SDS011;43465;50.728;4.160;2023-09-08T12:52:22;8.50;;;4.32;;
57635;SDS011;43465;50.728;4.160;2023-09-08T12:54:47;6.88;;;4.50;;
57635;SDS011;43465;50.728;4.160;2023-09-08T12:57:13;7.45;;;4.35;;
57635;SDS011;43465;50.728;4.160;2023-09-08T12:59:38;13.15;;;4.63;;
57635;SDS011;43465;50.728;4.160;2023-09-08T13:02:04;14.10;;;4.72;;
57635;SDS011;43465;50.728;4.160;2023-09-08T13:04:30;7.93;;;4.95;;
57635;SDS011;43465;50.728;4.160;2023-09-08T13:06:55;12.85;;;4.32;;
57635;SDS011;43465;50.728;4.160;2023-09-08T13:09:23;8.43;;;4.60;;
57635;SDS011;43465;50.728;4.160;2023-09-08T13:11:49;11.98;;;4.80;;
57635;SDS011;43465;50.728;4.160;2023-09-08T13:14:16;13.70;;;5.13;;
57635;SDS011;43465;50.728;4.160;2023-09-08T13:16:42;13.02;;;5.30;;
57635;SDS011;43465;50.728;4.160;2023-09-08T13:19:07;9.98;;;4.63;;
57635;SDS011;43465;50.728;4.160;2023-09-08T13:21:33;15.45;;;4.93;;
57635;SDS011;43465;50.728;4.160;2023-09-08T13:23:59;15.98;;;4.88;;
57635;SDS011;43465;50.728;4.160;2023-09-08T13:26:24;9.80;;;4.80;;
57635;SDS011;43465;50.728;4.160;2023-09-08T13:28:50;9.30;;;4.68;;
57635;SDS011;43465;50.728;4.160;2023-09-08T13:31:17;16.55;;;5.43;;
57635;SDS011;43465;50.728;4.160;2023-09-08T13:33:43;9.32;;;4.85;;
57635;SDS011;43465;50.728;4.160;2023-09-08T13:36:08;11.60;;;5.10;;
57635;SDS011;43465;50.728;4.160;2023-09-08T13:38:34;11.40;;;4.80;;
57635;SDS011;43465;50.728;4.160;2023-09-08T13:41:00;12.88;;;4.35;;
57635;SDS011;43465;50.728;4.160;2023-09-08T13:43:26;11.88;;;4.88;;
57635;SDS011;43465;50.728;4.160;2023-09-08T13:45:52;15.55;;;5.20;;
57635;SDS011;43465;50.728;4.160;2023-09-08T13:48:17;10.73;;;4.78;;
57635;SDS011;43465;50.728;4.160;2023-09-08T13:50:43;9.98;;;5.00;;
57635;SDS011;43465;50.728;4.160;2023-09-08T13:53:08;16.30;;;4.75;;
57635;SDS011;43465;50.728;4.160;2023-09-08T13:55:34;9.57;;;5.10;;
57635;SDS011;43465;50.728;4.160;2023-09-08T13:58:00;13.10;;;5.25;;
57635;SDS011;43465;50.728;4.160;2023-09-08T14:00:25;10.10;;;5.00;;
57635;SDS011;43465;50.728;4.160;2023-09-08T14:02:51;12.95;;;5.30;;
57635;SDS011;43465;50.728;4.160;2023-09-08T14:05:17;12.95;;;5.07;;
57635;SDS011;43465;50.728;4.160;2023-09-08T14:07:42;17.63;;;5.22;;
57635;SDS011;43465;50.728;4.160;2023-09-08T14:10:08;14.43;;;5.13;;
57635;SDS011;43465;50.728;4.160;2023-09-08T14:12:34;14.35;;;5.78;;
57635;SDS011;43465;50.728;4.160;2023-09-08T14:15:00;11.32;;;5.00;;
57635;SDS011;43465;50.728;4.160;2023-09-08T14:17:25;13.45;;;5.43;;
57635;SDS011;43465;50.728;4.160;2023-09-08T14:19:51;11.93;;;5.30;;
57635;SDS011;43465;50.728;4.160;2023-09-08T14:22:17;12.27;;;4.93;;
57635;SDS011;43465;50.728;4.160;2023-09-08T14:24:42;12.05;;;5.40;;
57635;SDS011;43465;50.728;4.160;2023-09-08T14:27:08;9.45;;;5.30;;
57635;SDS011;43465;50.728;4.160;2023-09-08T14:29:34;12.00;;;5.40;;
57635;SDS011;43465;50.728;4.160;2023-09-08T14:31:59;11.68;;;5.45;;
57635;SDS011;43465;50.728;4.160;2023-09-08T14:34:25;14.13;;;5.32;;
57635;SDS011;43465;50.728;4.160;2023-09-08T14:36:51;17.58;;;5.32;;
57635;SDS011;43465;50.728;4.160;2023-09-08T14:39:16;14.30;;;5.43;;
57635;SDS011;43465;50.728;4.160;2023-09-08T14:41:44;13.35;;;6.15;;